Saratoga Springs, NY

3:47 AM EDT on September 22, 2014 (GMT -0400)
Schenectady County | Change Station
CLOSE
Current Station
Airport
Location: Schenectady,
Elevation: 377 ft
Nearby Weather Stations

Elev 377 ft 42.85 °N, 73.93 °W | Updated 5 hours ago

Mostly Cloudy
Mostly Cloudy
66 °F
Feels Like 66 °F
N
17
Wind Variable Wind from West
Gusts 23 mph

Today
High -- | Low -- °F
--% Chance of Precip.
Yesterday
High -- | Low -- °F
Precip. -- in
6:42 AM 6:52 PM
Waning Crescent, 3% visible
Pressure 29.62 in
Visibility 10.0 miles
Clouds Mostly Cloudy 4600 ft
Mostly Cloudy 15000 ft
Dew Point 50 °F
Humidity 56%
Rainfall 0.00 in
Snow Depth Not available.
UV 0 out of 12
Pollen 1.50 out of 12
PM2.5 Good
Flu Activity Not available.
METAR KSCH 220150Z 28015G20KT 10SM BKN046 BKN150 19/10 A2962

More Conditions Fewer Conditions

Pressure 29.62 in
Visibility 10.0 miles
Clouds Mostly Cloudy 4600 ft
Mostly Cloudy 15000 ft
Dew Point 50 °F
Humidity 56%
Rainfall 0.00 in
Snow Depth Not available.
UV 0 out of 12
Pollen 1.50 out of 12
PM2.5 Good
Flu Activity Not available.
METAR KSCH 220150Z 28015G20KT 10SM BKN046 BKN150 19/10 A2962

More Conditions Fewer Conditions

10-Day Weather Forecast

Almanac

Astronomy

Sep. 22, 2014 Rise Set
Actual Time 6:42 AM EDT 6:52 PM EDT
Civil Twilight 6:13 AM EDT 7:20 PM EDT
Nautical Twilight 5:40 AM EDT 7:54 PM EDT
Astronomical Twilight 5:06 AM EDT 8:27 PM EDT
Moon 5:06 AM EDT 5:59 PM EDT
Length of Visible Light 13h 06m
Length of Day
12h 10m
Tomorrow will be 2m 54s shorter.
Waning Crescent, 3% of the Moon is Illuminated
Today
Waning Crescent
Sep 24
New
Oct 1
First Quarter
Oct 8
Full
Oct 15
Last Quarter

Today's Extremes

State Highs State Lows

Community

WunderPhotos

Upload Photos

1,755,392 photos uploaded!

Nearby

Air Quality

  Air Quality AQ Index Pollutant
Yesterday Good
OZONE
Yesterday Good
PM2.5
Current Good
PM2.5
Monday Good
OZONE
Monday Good
PM2.5

Snow Depth

Station Depth Elevation
No new snow has been reported.

Earthquake Activity

City Distance Mag. Time & Date
No recent earthquake activity has been reported nearby.
Minimum magnitude displayed is 2.5.

Coastal Water Temperatures

Place Temperature
No Stations Reporting

Nearby Weather Stations